Time;durP1;ratioP1;P1;durP2;ratioP2;P2;SDS_P1;SDS_P2;PMS_P1;PMS_P2;Temp;Humidity;BMP_temperature;BMP_pressure;BME280_temperature;BME280_humidity;BME280_pressure;Samples;Min_cycle;Max_cycle;Signal;HPM_P1;HPM_P2
2021/08/23 02:42:17;;;;;;;;;12.50;12.50;;;;;29.47;33.60;101050.47;144159;586;133012;-71
2021/08/23 02:44:56;;;;;;;;;13.75;13.75;;;;;29.51;33.77;101049.12;144169;591;131021;-70
2021/08/23 02:47:37;;;;;;;;;15.25;13.50;;;;;29.37;34.07;101049.69;144152;669;132012;-71
2021/08/23 02:50:14;;;;;;;;;18.00;16.75;;;;;29.24;34.01;101049.22;144154;616;131022;-69
2021/08/23 02:52:48;;;;;;;;;19.00;19.00;;;;;29.46;33.98;101053.31;144148;574;132911;-67
2021/08/23 02:55:21;;;;;;;;;17.75;16.75;;;;;29.56;33.92;101051.34;144165;585;132012;-68
2021/08/23 02:57:55;;;;;;;;;15.25;14.25;;;;;29.60;33.65;101055.44;144145;599;132012;-68
2021/08/23 03:00:29;;;;;;;;;16.25;15.25;;;;;29.75;33.46;101047.56;144167;584;132011;-69
2021/08/23 03:03:03;;;;;;;;;17.50;16.00;;;;;29.47;33.87;101055.88;144146;574;132014;-69
2021/08/23 03:05:37;;;;;;;;;16.25;16.25;;;;;29.46;34.11;101054.16;144163;563;132012;-69
2021/08/23 03:08:11;;;;;;;;;18.75;18.00;;;;;29.44;33.80;101047.22;144158;629;132014;-69
2021/08/23 03:10:45;;;;;;;;;14.75;14.75;;;;;29.41;34.01;101047.53;144163;613;132012;-70
2021/08/23 03:13:19;;;;;;;;;13.75;13.00;;;;;29.49;34.00;101050.28;144142;598;132911;-69
2021/08/23 03:15:53;;;;;;;;;16.50;15.25;;;;;29.54;33.78;101053.38;144150;581;132012;-69
2021/08/23 03:18:27;;;;;;;;;13.75;13.25;;;;;29.54;33.69;101051.50;144144;678;132014;-71
2021/08/23 03:21:01;;;;;;;;;16.00;15.00;;;;;29.47;33.88;101055.88;144165;662;132010;-71
2021/08/23 03:23:36;;;;;;;;;13.50;13.50;;;;;29.60;33.67;101054.59;144152;658;131912;-71
2021/08/23 03:26:10;;;;;;;;;13.25;12.75;;;;;29.30;34.44;101059.44;144168;604;132010;-71
2021/08/23 03:28:44;;;;;;;;;19.00;17.25;;;;;29.32;34.00;101062.84;144152;622;132012;-72
2021/08/23 03:31:18;;;;;;;;;14.00;13.00;;;;;29.33;34.41;101056.44;144167;674;132010;-68
2021/08/23 03:33:52;;;;;;;;;15.75;15.75;;;;;28.17;35.95;101076.84;144160;684;132911;-70
2021/08/23 03:36:26;;;;;;;;;15.50;15.00;;;;;29.25;34.46;101061.78;144167;692;132012;-70
2021/08/23 03:39:00;;;;;;;;;18.00;18.00;;;;;29.42;33.79;101069.00;144141;582;132912;-69
2021/08/23 03:41:34;;;;;;;;;14.75;14.75;;;;;29.51;33.79;101070.78;144150;714;132020;-69
2021/08/23 03:44:09;;;;;;;;;13.75;13.75;;;;;29.48;33.46;101067.53;144150;601;132013;-69
2021/08/23 03:46:43;;;;;;;;;12.75;12.75;;;;;29.38;33.81;101059.50;144169;569;132010;-70
2021/08/23 03:49:17;;;;;;;;;15.50;15.50;;;;;29.10;34.20;101064.16;144144;569;132911;-69
2021/08/23 03:51:51;;;;;;;;;15.50;15.25;;;;;29.03;34.27;101069.34;144168;579;132012;-71
2021/08/23 03:54:25;;;;;;;;;15.25;13.50;;;;;28.75;35.65;101072.13;144146;601;131911;-70
2021/08/23 03:56:59;;;;;;;;;13.75;13.75;;;;;29.19;34.30;101074.03;144165;623;133012;-70
2021/08/23 03:59:37;;;;;;;;;17.00;17.00;;;;;29.42;33.84;101077.13;144160;668;132013;-69
2021/08/23 04:02:11;;;;;;;;;17.00;13.75;;;;;29.35;33.90;101067.94;144168;590;132012;-69
2021/08/23 04:04:44;;;;;;;;;18.00;18.00;;;;;29.60;33.57;101074.37;144153;685;132911;-72
2021/08/23 04:07:19;;;;;;;;;18.50;17.00;;;;;29.44;33.65;101077.78;144161;566;132008;-70
2021/08/23 04:09:52;;;;;;;;;13.00;13.00;;;;;29.38;33.60;101081.97;144150;615;132911;-71
2021/08/23 04:12:26;;;;;;;;;17.25;16.25;;;;;29.50;33.97;101081.75;144171;639;131020;-71
2021/08/23 04:15:06;;;;;;;;;13.25;13.25;;;;;29.72;33.36;101085.78;144150;581;132013;-71
2021/08/23 04:17:41;;;;;;;;;15.75;15.75;;;;;29.61;33.47;101084.19;144177;589;132012;-71
2021/08/23 04:20:15;;;;;;;;;16.75;16.75;;;;;29.49;33.74;101080.87;144151;572;132013;-70
2021/08/23 04:22:49;;;;;;;;;16.25;16.25;;;;;29.25;33.94;101086.94;144174;594;132012;-70
2021/08/23 04:25:26;;;;;;;;;16.00;14.75;;;;;29.43;33.96;101083.38;144163;577;132020;-71
2021/08/23 04:28:00;;;;;;;;;17.00;14.00;;;;;29.47;33.88;101087.44;144165;587;132013;-73
2021/08/23 04:30:34;;;;;;;;;18.50;17.50;;;;;29.58;34.15;101086.34;144147;570;132911;-71
2021/08/23 04:33:08;;;;;;;;;17.25;16.00;;;;;29.49;34.17;101086.28;144157;563;132010;-71
2021/08/23 04:35:42;;;;;;;;;15.50;14.00;;;;;29.70;34.15;101087.78;144144;743;132911;-71
2021/08/23 04:38:16;;;;;;;;;16.50;15.50;;;;;29.67;34.29;101088.94;144166;606;132010;-73
2021/08/23 04:40:50;;;;;;;;;17.00;16.00;;;;;29.70;34.36;101087.78;144145;566;132014;-71
2021/08/23 04:43:23;;;;;;;;;15.25;15.25;;;;;29.54;34.97;101086.66;144175;597;131021;-70
2021/08/23 04:45:57;;;;;;;;;16.25;14.00;;;;;29.97;34.52;101088.66;144143;575;132014;-70
2021/08/23 04:48:31;;;;;;;;;15.00;15.00;;;;;30.10;34.43;101089.06;144166;583;132012;-70
2021/08/23 04:51:07;;;;;;;;;16.50;16.00;;;;;30.36;34.20;101093.56;144165;743;132013;-69
2021/08/23 04:53:41;;;;;;;;;18.00;16.50;;;;;30.54;33.91;101085.34;144169;622;132010;-70
2021/08/23 04:56:16;;;;;;;;;15.75;15.75;;;;;30.75;33.81;101087.59;144148;610;132911;-71
2021/08/23 04:58:52;;;;;;;;;16.50;15.50;;;;;30.88;33.69;101093.38;144153;689;132011;-70
2021/08/23 05:01:26;;;;;;;;;18.50;17.00;;;;;31.06;33.10;101092.41;144154;563;132019;-70
2021/08/23 05:04:00;;;;;;;;;17.25;15.00;;;;;31.11;33.38;101094.59;144168;606;132010;-69
2021/08/23 05:06:34;;;;;;;;;15.50;13.25;;;;;31.22;33.46;101094.25;144147;579;132014;-69
2021/08/23 05:09:08;;;;;;;;;15.75;15.75;;;;;31.51;33.51;101091.03;144173;580;132010;-68
2021/08/23 05:11:42;;;;;;;;;18.50;18.50;;;;;31.71;32.25;101087.97;144148;570;131911;-68
2021/08/23 05:14:16;;;;;;;;;17.00;16.25;;;;;31.74;32.38;101087.66;144163;630;132012;-68
2021/08/23 05:16:50;;;;;;;;;17.50;15.75;;;;;31.86;32.66;101086.25;144154;584;132020;-74
2021/08/23 05:19:24;;;;;;;;;14.75;13.50;;;;;32.06;32.30;101085.84;144167;589;132012;-73
2021/08/23 05:21:58;;;;;;;;;17.25;15.50;;;;;32.22;32.24;101088.53;144150;708;132021;-70
2021/08/23 05:24:32;;;;;;;;;26.25;25.25;;;;;32.38;31.94;101098.47;144153;596;131020;-69
2021/08/23 05:27:05;;;;;;;;;18.25;17.00;;;;;32.42;30.94;101093.50;144145;581;132015;-69
2021/08/23 05:29:40;;;;;;;;;17.50;16.50;;;;;32.31;31.59;101083.03;144171;743;131021;-69
2021/08/23 05:32:16;;;;;;;;;15.50;15.50;;;;;32.45;31.16;101086.88;144148;765;132012;-70
2021/08/23 05:34:51;;;;;;;;;15.00;15.00;;;;;32.50;31.83;101093.47;144173;569;132010;-70
2021/08/23 05:37:24;;;;;;;;;14.50;14.50;;;;;32.72;31.40;101086.41;144151;638;131912;-70
2021/08/23 05:39:58;;;;;;;;;14.75;14.25;;;;;32.96;31.21;101086.41;144166;572;132012;-70
2021/08/23 05:42:32;;;;;;;;;15.75;15.50;;;;;33.04;31.46;101083.66;144160;569;132015;-71
2021/08/23 05:45:06;;;;;;;;;14.75;13.75;;;;;33.26;30.87;101083.81;144171;571;131021;-71
2021/08/23 05:47:41;;;;;;;;;21.25;17.75;;;;;33.40;30.33;101091.16;144153;606;131911;-71
2021/08/23 05:50:15;;;;;;;;;16.00;16.00;;;;;33.54;29.74;101090.34;144148;733;132013;-70
2021/08/23 05:52:49;;;;;;;;;12.25;12.25;;;;;33.54;29.58;101095.78;144145;565;132912;-70
2021/08/23 05:55:23;;;;;;;;;12.75;12.75;;;;;33.76;29.07;101093.19;144166;631;132012;-74
2021/08/23 05:57:57;;;;;;;;;13.75;13.75;;;;;33.85;28.91;101085.81;144151;582;131911;-71
2021/08/23 06:00:31;;;;;;;;;14.75;14.75;;;;;33.86;28.15;101092.91;144171;564;132010;-70
2021/08/23 06:03:05;;;;;;;;;15.75;13.75;;;;;33.77;28.23;101092.19;144152;600;132012;-69
2021/08/23 06:05:39;;;;;;;;;14.25;13.00;;;;;33.90;28.52;101088.78;144174;668;131021;-69
2021/08/23 06:08:13;;;;;;;;;14.00;14.00;;;;;34.03;28.37;101078.09;144157;609;133018;-69
2021/08/23 06:10:49;;;;;;;;;16.00;16.00;;;;;34.23;28.21;101078.34;144174;565;132012;-69
2021/08/23 06:13:23;;;;;;;;;14.50;13.00;;;;;34.25;28.23;101076.25;144151;585;132911;-70
2021/08/23 06:16:01;;;;;;;;;15.00;13.75;;;;;34.45;27.97;101078.44;144154;565;132012;-70
2021/08/23 06:18:35;;;;;;;;;14.00;14.00;;;;;34.62;27.37;101078.19;144157;663;132012;-70
2021/08/23 06:21:09;;;;;;;;;13.75;13.75;;;;;34.77;27.24;101078.13;144167;582;132012;-70
2021/08/23 06:23:43;;;;;;;;;12.75;12.50;;;;;34.88;27.10;101081.19;144149;590;132911;-68
2021/08/23 06:26:17;;;;;;;;;11.75;11.00;;;;;35.03;27.05;101072.94;144169;635;132010;-69
2021/08/23 06:28:51;;;;;;;;;10.50;10.50;;;;;35.02;26.77;101078.59;144151;626;132014;-71
2021/08/23 06:31:25;;;;;;;;;15.25;15.25;;;;;35.20;26.58;101068.06;144170;566;132010;-70
2021/08/23 06:33:58;;;;;;;;;14.50;14.00;;;;;35.36;26.47;101071.56;144155;585;132018;-71
2021/08/23 06:36:35;;;;;;;;;12.50;12.50;;;;;35.30;26.67;101083.28;144172;720;131020;-70
2021/08/23 06:39:09;;;;;;;;;15.00;15.00;;;;;35.05;26.76;101080.97;144145;782;132911;-74
2021/08/23 06:41:43;;;;;;;;;14.00;14.00;;;;;33.97;27.62;101078.84;144152;567;132011;-70
2021/08/23 06:44:17;;;;;;;;;13.00;13.00;;;;;34.24;27.76;101074.59;144142;734;132019;-69
2021/08/23 06:46:52;;;;;;;;;12.50;12.50;;;;;35.08;26.24;101086.03;144169;565;132010;-68
2021/08/23 06:49:26;;;;;;;;;13.25;13.00;;;;;34.95;26.85;101080.44;144150;610;132012;-68
2021/08/23 06:52:00;;;;;;;;;11.00;11.00;;;;;35.31;26.20;101076.75;144169;563;132012;-69
2021/08/23 06:54:34;;;;;;;;;14.50;13.50;;;;;35.34;26.00;101073.69;144149;593;132911;-68
2021/08/23 06:57:08;;;;;;;;;10.75;10.00;;;;;34.40;26.83;101081.72;144175;619;132012;-67
2021/08/23 06:59:42;;;;;;;;;13.00;12.00;;;;;34.05;27.30;101086.06;144163;604;131912;-70
2021/08/23 07:02:16;;;;;;;;;14.00;11.50;;;;;33.10;27.73;101082.91;144174;734;132010;-69
2021/08/23 07:04:50;;;;;;;;;10.75;10.75;;;;;33.80;27.21;101083.63;144148;639;132013;-67
2021/08/23 07:07:24;;;;;;;;;11.75;10.25;;;;;32.84;28.19;101084.09;144159;579;131020;-68
2021/08/23 07:09:58;;;;;;;;;11.50;10.75;;;;;32.46;29.26;101100.28;144154;597;131016;-68
2021/08/23 07:12:32;;;;;;;;;15.00;14.50;;;;;32.58;29.50;101089.03;144174;796;131021;-68
2021/08/23 07:15:06;;;;;;;;;15.50;14.25;;;;;32.16;30.75;101091.94;144158;716;131012;-69
2021/08/23 07:17:40;;;;;;;;;14.00;14.00;;;;;32.22;31.19;101085.81;144171;609;132016;-69
2021/08/23 07:20:15;;;;;;;;;14.50;14.25;;;;;31.92;31.36;101087.41;144143;744;132014;-67
2021/08/23 07:22:49;;;;;;;;;12.75;12.75;;;;;31.89;32.81;101088.63;144174;579;132010;-71
2021/08/23 07:25:24;;;;;;;;;12.50;12.00;;;;;31.50;34.21;101086.62;144167;588;131920;-68
2021/08/23 07:27:59;;;;;;;;;14.50;14.00;;;;;31.99;33.33;101085.69;144170;673;132013;-67
2021/08/23 07:30:33;;;;;;;;;13.25;13.25;;;;;32.93;31.70;101078.59;144146;589;132014;-67
2021/08/23 07:33:07;;;;;;;;;11.50;11.50;;;;;32.19;32.33;101082.56;144150;593;132008;-67
2021/08/23 07:35:41;;;;;;;;;13.00;12.75;;;;;32.54;31.41;101085.81;144151;603;132012;-68
2021/08/23 07:38:15;;;;;;;;;13.00;13.00;;;;;32.16;31.76;101075.62;144172;587;132012;-67
2021/08/23 07:40:49;;;;;;;;;13.75;13.75;;;;;31.88;32.80;101084.19;144146;662;132911;-67
2021/08/23 07:43:23;;;;;;;;;13.25;12.25;;;;;33.12;30.76;101078.13;144169;627;132012;-67
2021/08/23 07:45:57;;;;;;;;;12.25;12.25;;;;;32.93;30.37;101076.75;144151;597;131911;-69
2021/08/23 07:48:38;;;;;;;;;15.25;14.25;;;;;31.89;32.23;101083.19;144165;631;132033;-67
2021/08/23 07:51:12;;;;;;;;;9.50;9.50;;;;;32.27;32.41;101076.28;144162;716;132012;-67
2021/08/23 07:53:45;;;;;;;;;15.50;14.00;;;;;32.53;32.49;101082.25;144169;749;132012;-67
2021/08/23 07:56:19;;;;;;;;;14.00;12.50;;;;;33.24;31.41;101084.00;144154;575;132013;-68
2021/08/23 07:58:53;;;;;;;;;12.50;11.25;;;;;32.96;31.42;101078.25;144152;563;132021;-68
2021/08/23 08:01:28;;;;;;;;;13.50;13.25;;;;;32.81;32.18;101089.91;144151;581;131911;-68
2021/08/23 08:04:02;;;;;;;;;15.00;14.50;;;;;32.69;33.90;101085.88;144171;633;131025;-68
2021/08/23 08:06:36;;;;;;;;;13.25;13.00;;;;;32.38;34.54;101084.87;144148;602;132911;-68
2021/08/23 08:09:10;;;;;;;;;15.25;15.25;;;;;32.25;33.70;101083.75;144171;563;132010;-67
2021/08/23 08:11:44;;;;;;;;;19.50;18.75;;;;;32.69;34.56;101085.88;144145;566;132020;-68
2021/08/23 08:14:18;;;;;;;;;20.50;18.75;;;;;31.98;34.97;101089.41;144170;622;131020;-67
2021/08/23 08:16:52;;;;;;;;;15.75;15.50;;;;;32.71;32.93;101089.28;144165;573;132911;-68
2021/08/23 08:19:26;;;;;;;;;18.00;17.50;;;;;32.70;33.25;101084.91;144175;559;132010;-67
2021/08/23 08:22:05;;;;;;;;;18.25;16.25;;;;;32.52;33.13;101083.28;144149;565;132014;-69
2021/08/23 08:24:39;;;;;;;;;17.75;14.50;;;;;32.58;33.69;101075.44;144157;701;131020;-67
2021/08/23 08:27:12;;;;;;;;;20.25;20.25;;;;;32.51;34.62;101089.72;144145;656;132021;-70
2021/08/23 08:29:46;;;;;;;;;16.25;16.00;;;;;32.43;34.26;101084.34;144165;570;132012;-70
2021/08/23 08:32:21;;;;;;;;;17.00;16.75;;;;;31.93;35.86;101080.13;144151;622;131911;-69
2021/08/23 08:34:55;;;;;;;;;16.25;15.75;;;;;31.47;36.65;101078.84;144170;578;132010;-69
2021/08/23 08:37:28;;;;;;;;;16.75;16.75;;;;;31.85;36.65;101075.53;144148;624;131911;-68
2021/08/23 08:40:02;;;;;;;;;15.25;15.00;;;;;32.38;35.69;101084.87;144171;686;132010;-69
2021/08/23 08:42:36;;;;;;;;;14.25;14.25;;;;;32.51;34.12;101078.03;144157;620;132912;-68
2021/08/23 08:45:11;;;;;;;;;19.75;17.00;;;;;32.20;34.54;101067.97;144168;615;131020;-68
2021/08/23 08:47:46;;;;;;;;;12.00;12.00;;;;;32.09;34.43;101074.63;144152;650;131911;-69
2021/08/23 08:50:21;;;;;;;;;12.50;11.75;;;;;32.44;34.67;101077.87;144154;581;132010;-70
2021/08/23 08:52:55;;;;;;;;;13.00;13.00;;;;;32.04;36.22;101068.84;144146;602;132911;-69
2021/08/23 08:55:35;;;;;;;;;16.75;14.50;;;;;32.72;35.66;101070.09;144169;577;132011;-69
2021/08/23 08:58:09;;;;;;;;;17.00;14.75;;;;;32.68;35.42;101067.87;144143;593;132911;-69
2021/08/23 09:00:44;;;;;;;;;10.50;10.25;;;;;33.03;33.63;101068.34;144175;689;131020;-70
2021/08/23 09:03:32;;;;;;;;;6.25;6.25;;;;;33.05;33.44;101058.13;144159;588;132018;-69
2021/08/23 09:06:11;;;;;;;;;14.50;13.50;;;;;32.52;34.45;101058.81;144171;571;132012;-70
2021/08/23 09:08:51;;;;;;;;;13.50;13.25;;;;;33.52;31.58;101053.47;144164;577;132012;-69
2021/08/23 09:11:26;;;;;;;;;11.00;11.00;;;;;33.22;30.92;101051.50;144172;633;132012;-71
2021/08/23 09:14:08;;;;;;;;;10.75;9.75;;;;;33.51;30.71;101052.62;144153;624;131911;-70
2021/08/23 09:16:47;;;;;;;;;15.00;13.00;;;;;33.79;31.27;101052.00;144159;700;132010;-69
2021/08/23 09:19:29;;;;;;;;;13.75;13.75;;;;;33.03;33.89;101044.72;144151;595;132019;-70
2021/08/23 09:22:09;;;;;;;;;15.75;14.75;;;;;32.55;35.60;101054.91;144165;662;132012;-70
2021/08/23 09:24:45;;;;;;;;;13.00;13.00;;;;;32.22;35.82;101044.22;144146;619;132911;-69
2021/08/23 09:27:19;;;;;;;;;12.50;11.75;;;;;32.84;32.85;101039.78;144172;572;132013;-69
2021/08/23 09:30:05;;;;;;;;;10.00;10.00;;;;;32.93;33.26;101037.81;144146;565;132014;-71
2021/08/23 09:32:51;;;;;;;;;12.75;11.75;;;;;32.92;34.06;101033.41;144166;592;132012;-70
2021/08/23 09:35:41;;;;;;;;;11.25;11.00;;;;;33.00;33.72;101045.09;144162;583;132911;-69
2021/08/23 09:38:17;;;;;;;;;11.75;11.75;;;;;33.51;31.58;101032.72;144169;584;132012;-69
2021/08/23 09:40:53;;;;;;;;;11.50;11.50;;;;;33.01;32.88;101030.47;144148;622;132018;-70
2021/08/23 09:43:30;;;;;;;;;12.75;12.75;;;;;32.83;31.80;101036.19;144156;564;131020;-70
2021/08/23 09:46:12;;;;;;;;;13.25;13.25;;;;;32.62;32.62;101036.00;144148;599;132014;-69
2021/08/23 09:48:58;;;;;;;;;12.25;12.25;;;;;32.73;32.82;101033.72;144174;632;132012;-72
2021/08/23 09:51:37;;;;;;;;;10.00;10.00;;;;;32.68;32.65;101029.84;144147;625;132014;-68
2021/08/23 09:54:16;;;;;;;;;13.00;13.00;;;;;33.15;32.82;101033.37;144169;649;132010;-67
2021/08/23 09:56:55;;;;;;;;;13.00;12.75;;;;;33.62;30.64;101020.53;144146;570;132012;-67
2021/08/23 09:59:34;;;;;;;;;11.00;11.00;;;;;34.01;30.20;101031.16;144169;569;132010;-68
2021/08/23 10:02:08;;;;;;;;;15.50;14.00;;;;;33.12;32.16;101023.75;144161;582;132018;-69
2021/08/23 10:04:43;;;;;;;;;13.00;11.75;;;;;33.28;31.42;101024.63;144163;571;133010;-68
2021/08/23 10:07:17;;;;;;;;;12.50;11.75;;;;;33.47;30.70;101021.34;144153;636;132018;-70
2021/08/23 10:09:53;;;;;;;;;12.00;11.75;;;;;33.17;30.67;101028.62;144152;584;132011;-68
2021/08/23 10:12:27;;;;;;;;;13.75;12.00;;;;;32.94;30.95;101023.22;144146;622;132012;-68
2021/08/23 10:15:01;;;;;;;;;12.00;10.25;;;;;33.69;28.95;101029.63;144176;616;132010;-69
2021/08/23 10:17:38;;;;;;;;;11.00;11.00;;;;;33.20;29.62;101029.09;144148;570;132014;-68
2021/08/23 10:20:17;;;;;;;;;11.00;11.00;;;;;33.64;29.44;101030.22;144176;644;132012;-69
2021/08/23 10:22:51;;;;;;;;;10.00;10.00;;;;;33.66;29.45;101019.13;144159;564;132012;-69
2021/08/23 10:25:26;;;;;;;;;11.00;11.00;;;;;33.73;27.92;101030.94;144174;564;132013;-68
2021/08/23 10:28:13;;;;;;;;;10.25;10.25;;;;;33.60;28.58;101018.00;144167;744;132012;-68
2021/08/23 10:30:49;;;;;;;;;9.50;9.50;;;;;33.63;27.40;101011.31;144169;638;131020;-69
2021/08/23 10:33:23;;;;;;;;;11.25;11.00;;;;;33.93;26.75;101019.50;144150;602;132019;-69
2021/08/23 10:35:59;;;;;;;;;8.25;8.25;;;;;34.53;26.55;101017.50;144155;570;132012;-69
2021/08/23 10:38:33;;;;;;;;;10.50;10.50;;;;;34.04;27.18;101006.25;144149;586;132020;-70
2021/08/23 10:41:27;;;;;;;;;10.25;10.25;;;;;33.46;26.63;101007.94;144168;572;132010;-69
2021/08/23 10:44:05;;;;;;;;;8.00;8.00;;;;;33.84;26.50;101010.59;144157;570;131911;-68
2021/08/23 10:46:41;;;;;;;;;9.25;9.25;;;;;33.92;27.57;101004.22;144170;625;131021;-69
2021/08/23 10:49:24;;;;;;;;;9.75;9.75;;;;;33.26;28.26;101007.63;144148;609;132014;-69
2021/08/23 10:52:03;;;;;;;;;10.00;10.00;;;;;33.82;27.69;101008.06;144163;631;133020;-69
2021/08/23 10:54:46;;;;;;;;;11.00;11.00;;;;;33.95;27.68;101001.09;144162;564;132911;-69
2021/08/23 10:57:26;;;;;;;;;11.00;10.75;;;;;34.41;26.44;100989.94;144172;620;132010;-69
2021/08/23 11:00:15;;;;;;;;;9.25;7.00;;;;;33.90;27.00;100986.19;144152;582;132911;-68
2021/08/23 11:02:49;;;;;;;;;11.00;10.50;;;;;33.63;27.30;100981.38;144155;572;132012;-69
2021/08/23 11:05:26;;;;;;;;;8.00;8.00;;;;;34.06;26.81;100995.16;144158;618;132911;-69
2021/08/23 11:08:07;;;;;;;;;4.00;4.00;;;;;33.83;25.93;100984.41;144179;629;132010;-69
2021/08/23 11:10:43;;;;;;;;;11.00;10.00;;;;;34.67;25.35;100969.41;144152;617;132013;-70
2021/08/23 11:13:22;;;;;;;;;10.00;10.00;;;;;34.40;25.21;100974.59;144175;572;132010;-69
2021/08/23 11:16:09;;;;;;;;;10.25;10.25;;;;;33.60;26.97;100979.91;144151;712;132012;-69
2021/08/23 11:18:47;;;;;;;;;10.50;9.25;;;;;34.00;26.79;100968.72;144173;631;132012;-69
2021/08/23 11:21:21;;;;;;;;;10.75;10.75;;;;;34.38;25.89;100969.34;144158;579;132911;-69
2021/08/23 11:27:03;;;;;;;;;10.00;10.00;;;;;33.32;27.40;100964.22;144157;612;131914;-69
2021/08/23 11:29:38;;;;;;;;;10.00;10.00;;;;;33.48;27.32;100965.91;144153;592;133020;-69
2021/08/23 11:32:13;;;;;;;;;11.75;10.75;;;;;32.99;26.54;100960.97;144148;594;132014;-69
2021/08/23 11:34:54;;;;;;;;;12.50;12.50;;;;;33.14;26.52;100959.13;144174;566;132010;-69
2021/08/23 11:37:30;;;;;;;;;11.00;8.75;;;;;33.29;25.98;100956.44;144149;621;132911;-69
2021/08/23 11:40:08;;;;;;;;;10.00;10.00;;;;;33.69;26.89;100950.69;144174;605;131021;-68
2021/08/23 11:42:41;;;;;;;;;9.75;9.00;;;;;33.87;25.44;100947.59;144153;733;131039;-68
2021/08/23 11:45:24;;;;;;;;;8.50;8.50;;;;;33.79;26.73;100954.00;144178;608;131020;-69
2021/08/23 11:47:58;;;;;;;;;10.25;10.25;;;;;33.00;27.78;100946.34;144166;582;131912;-69
2021/08/23 11:50:33;;;;;;;;;10.25;10.25;;;;;33.11;26.66;100947.75;144178;691;131030;-69
2021/08/23 11:53:12;;;;;;;;;10.75;9.75;;;;;33.18;24.59;100941.38;144151;564;132012;-69
2021/08/23 11:55:51;;;;;;;;;7.50;7.50;;;;;33.60;25.17;100935.50;144164;610;132008;-69
2021/08/23 11:58:26;;;;;;;;;9.75;9.75;;;;;33.36;25.38;100942.94;144152;622;132012;-69
2021/08/23 12:01:05;;;;;;;;;8.50;7.25;;;;;33.65;24.38;100935.78;144172;576;132013;-68
2021/08/23 12:03:39;;;;;;;;;12.00;11.00;;;;;33.51;24.59;100926.59;144147;641;132014;-68
2021/08/23 12:06:16;;;;;;;;;11.00;11.00;;;;;34.07;25.57;100928.75;144176;624;132008;-70
2021/08/23 12:08:50;;;;;;;;;8.50;8.50;;;;;34.73;25.14;100914.94;144157;615;132013;-68
2021/08/23 12:11:24;;;;;;;;;10.25;10.25;;;;;34.34;26.06;100924.47;144168;566;132012;-69
2021/08/23 12:13:58;;;;;;;;;11.00;11.00;;;;;33.37;26.29;100931.84;144162;618;132012;-68
2021/08/23 12:16:40;;;;;;;;;11.25;11.00;;;;;32.94;27.88;100920.72;144172;587;132012;-69
2021/08/23 12:19:16;;;;;;;;;8.75;8.75;;;;;33.45;25.82;100906.44;144154;785;132012;-69
2021/08/23 12:21:53;;;;;;;;;8.00;8.00;;;;;33.00;26.20;100902.84;144162;565;132010;-70
2021/08/23 12:24:27;;;;;;;;;7.75;7.75;;;;;33.45;25.02;100901.00;144149;584;132014;-70
2021/08/23 12:27:05;;;;;;;;;10.50;9.25;;;;;33.00;27.47;100902.84;144173;607;132010;-70
2021/08/23 12:29:41;;;;;;;;;12.00;11.50;;;;;33.32;24.53;100889.94;144159;630;131860;-70
2021/08/23 12:32:17;;;;;;;;;11.00;10.50;;;;;32.61;25.51;100876.69;144169;595;132010;-70
2021/08/23 12:34:53;;;;;;;;;12.00;12.00;;;;;33.12;25.05;100882.31;144149;594;132911;-70
2021/08/23 12:37:29;;;;;;;;;10.50;10.50;;;;;33.38;25.00;100879.12;144168;758;132010;-70
2021/08/23 12:40:03;;;;;;;;;11.75;10.75;;;;;33.43;24.96;100884.00;144168;701;132012;-70
2021/08/23 12:42:37;;;;;;;;;9.50;8.75;;;;;33.99;25.05;100882.59;144171;587;132012;-69
2021/08/23 12:45:12;;;;;;;;;10.00;10.00;;;;;34.05;25.12;100862.72;144153;634;131911;-70
2021/08/23 12:47:46;;;;;;;;;9.75;9.25;;;;;33.86;24.68;100873.25;144159;634;132010;-70
2021/08/23 12:50:20;;;;;;;;;12.25;11.50;;;;;33.82;23.90;100858.34;144152;652;132911;-69
2021/08/23 12:52:54;;;;;;;;;11.00;11.00;;;;;33.94;22.70;100860.53;144169;610;132012;-70
2021/08/23 12:55:27;;;;;;;;;12.00;12.00;;;;;34.34;22.19;100859.06;144147;571;132014;-70
2021/08/23 12:58:01;;;;;;;;;11.00;11.00;;;;;33.99;22.36;100856.19;144173;602;132010;-71
2021/08/23 13:00:36;;;;;;;;;8.00;8.00;;;;;34.19;23.33;100845.50;144156;598;132013;-69
2021/08/23 13:03:10;;;;;;;;;11.00;10.00;;;;;34.40;23.19;100844.63;144172;703;132012;-68
2021/08/23 13:05:44;;;;;;;;;10.25;9.75;;;;;35.21;23.25;100846.03;144166;612;132014;-67
2021/08/23 13:08:18;;;;;;;;;9.00;9.00;;;;;36.09;22.53;100841.72;144182;571;131021;-68
2021/08/23 13:10:52;;;;;;;;;9.50;9.50;;;;;36.06;22.73;100828.44;144153;687;132911;-68
2021/08/23 13:13:26;;;;;;;;;7.25;7.00;;;;;36.35;17.68;100820.94;144164;590;132008;-67
2021/08/23 13:16:00;;;;;;;;;10.00;8.75;;;;;36.52;18.18;100824.06;144153;622;132912;-67
2021/08/23 13:18:35;;;;;;;;;7.75;7.75;;;;;36.58;16.84;100817.75;144177;687;132010;-69
2021/08/23 13:21:10;;;;;;;;;8.25;8.25;;;;;36.85;16.34;100813.09;144159;589;131911;-69
2021/08/23 13:23:44;;;;;;;;;11.25;10.50;;;;;36.95;15.68;100814.53;144174;574;132010;-69
2021/08/23 13:26:22;;;;;;;;;9.25;9.25;;;;;37.71;14.25;100821.97;144148;566;132014;-68
2021/08/23 13:28:56;;;;;;;;;9.25;8.00;;;;;37.61;15.51;100818.06;144173;605;132012;-67
2021/08/23 13:31:30;;;;;;;;;11.25;8.00;;;;;37.57;14.29;100823.13;144163;606;132018;-67
2021/08/23 13:34:04;;;;;;;;;10.50;10.50;;;;;37.09;14.80;100825.22;144174;569;132012;-67
2021/08/23 13:36:38;;;;;;;;;8.25;7.25;;;;;37.41;15.37;100811.66;144157;596;132012;-67
2021/08/23 13:39:14;;;;;;;;;6.25;6.25;;;;;37.72;15.02;100807.22;144161;573;132012;-69
2021/08/23 13:41:48;;;;;;;;;8.50;8.50;;;;;38.16;14.39;100804.59;144157;722;131911;-67
2021/08/23 13:44:22;;;;;;;;;9.50;8.75;;;;;38.47;13.45;100804.78;144173;580;132013;-69
2021/08/23 13:46:56;;;;;;;;;7.25;7.25;;;;;38.28;13.93;100799.28;144155;604;132021;-67
2021/08/23 13:49:30;;;;;;;;;10.00;10.00;;;;;37.23;16.91;100797.81;144177;586;132012;-68
2021/08/23 13:52:04;;;;;;;;;13.25;11.50;;;;;35.79;19.55;100797.50;144148;595;132014;-67
2021/08/23 13:54:38;;;;;;;;;8.25;8.25;;;;;34.86;20.07;100802.44;144174;631;132020;-68
2021/08/23 13:57:12;;;;;;;;;11.00;10.25;;;;;35.54;20.79;100798.09;144158;601;132034;-67
2021/08/23 13:59:46;;;;;;;;;10.25;9.25;;;;;36.24;20.06;100790.44;144176;590;132011;-71
2021/08/23 14:02:19;;;;;;;;;12.50;12.50;;;;;34.95;20.52;100794.91;144150;616;132912;-70
2021/08/23 14:04:53;;;;;;;;;9.75;8.00;;;;;35.24;20.40;100801.12;144165;606;131022;-69
2021/08/23 14:07:27;;;;;;;;;10.00;10.00;;;;;34.78;20.77;100794.38;144156;598;131020;-69
2021/08/23 14:10:01;;;;;;;;;9.25;9.25;;;;;34.99;21.16;100804.38;144177;626;132010;-68
2021/08/23 14:12:35;;;;;;;;;9.00;9.00;;;;;34.86;22.42;100799.69;144158;580;131911;-69
2021/08/23 14:15:13;;;;;;;;;9.50;9.50;;;;;33.64;23.38;100801.56;144180;567;132012;-69
2021/08/23 14:17:47;;;;;;;;;8.50;8.50;;;;;33.37;26.46;100803.16;144163;579;132012;-69
2021/08/23 14:20:21;;;;;;;;;10.25;9.75;;;;;33.47;27.60;100806.41;144180;613;131029;-67
2021/08/23 14:22:55;;;;;;;;;11.50;11.50;;;;;33.61;27.01;100795.66;144169;569;132912;-68
2021/08/23 14:25:30;;;;;;;;;12.00;12.00;;;;;33.18;26.74;100793.69;144173;613;132010;-68